Time;durP1;ratioP1;P1;durP2;ratioP2;P2;SDS_P1;SDS_P2;PMS_P1;PMS_P2;Temp;Humidity;BMP_temperature;BMP_pressure;BME280_temperature;BME280_humidity;BME280_pressure;Samples;Min_cycle;Max_cycle;Signal;HPM_P1;HPM_P2
2024/01/29 00:01:04;;;;;;;13.88;11.38;;;25.10;57.70;;;;;;6155451;28;87332;-62
2024/01/29 00:04:06;;;;;;;13.65;11.75;;;25.00;58.10;;;;;;6153657;28;89576;-62
2024/01/29 00:07:08;;;;;;;12.93;11.35;;;25.00;58.10;;;;;;6155457;28;89041;-62
2024/01/29 00:10:11;;;;;;;12.77;11.48;;;24.90;57.80;;;;;;6149226;28;90329;-63
2024/01/29 00:13:13;;;;;;;16.58;11.35;;;24.80;57.60;;;;;;6155684;28;89117;-63
2024/01/29 00:16:16;;;;;;;12.13;10.85;;;24.80;57.60;;;;;;6156384;28;89080;-63
2024/01/29 00:19:18;;;;;;;13.63;10.75;;;24.70;57.50;;;;;;6156886;28;88395;-62
2024/01/29 00:22:20;;;;;;;12.25;10.88;;;24.70;57.50;;;;;;6143692;28;89049;-63
2024/01/29 00:25:22;;;;;;;12.07;10.70;;;24.60;57.50;;;;;;6141945;28;88077;-63
2024/01/29 00:28:25;;;;;;;12.40;10.65;;;24.60;57.60;;;;;;6155255;28;88935;-62
2024/01/29 00:31:29;;;;;;;53.10;48.15;;;24.50;57.60;;;;;;6151342;28;87600;-62
2024/01/29 00:34:31;;;;;;;109.25;99.28;;;24.40;57.80;;;;;;6153929;28;88066;-63
2024/01/29 00:37:33;;;;;;;146.00;132.63;;;24.40;57.90;;;;;;6151328;28;89088;-63
2024/01/29 00:40:37;;;;;;;148.98;135.30;;;24.30;58.00;;;;;;6157352;28;89996;-64
2024/01/29 00:43:39;;;;;;;196.48;178.35;;;24.30;58.10;;;;;;6145050;28;89126;-63
2024/01/29 00:46:42;;;;;;;284.40;259.48;;;24.20;58.00;;;;;;6144141;28;89143;-62
2024/01/29 00:49:44;;;;;;;296.35;270.10;;;24.20;58.10;;;;;;6140813;28;89159;-63
2024/01/29 00:52:46;;;;;;;293.95;267.92;;;24.10;58.00;;;;;;6131801;28;87957;-62
2024/01/29 00:55:48;;;;;;;254.57;232.05;;;24.10;58.20;;;;;;6149347;28;89074;-63
2024/01/29 00:58:50;;;;;;;247.13;224.88;;;24.10;58.10;;;;;;6142152;28;89247;-62
2024/01/29 01:01:54;;;;;;;276.98;252.25;;;24.00;57.70;;;;;;6149175;28;88432;-62
2024/01/29 01:04:56;;;;;;;268.27;244.55;;;24.00;57.60;;;;;;6150830;28;89143;-62
2024/01/29 01:07:58;;;;;;;249.00;226.32;;;23.90;57.40;;;;;;6148506;28;90090;-63
2024/01/29 01:11:00;;;;;;;241.20;219.70;;;23.90;57.50;;;;;;6147787;28;90388;-63
2024/01/29 01:14:02;;;;;;;208.63;189.45;;;23.90;57.60;;;;;;6154930;28;89083;-63
2024/01/29 01:17:06;;;;;;;191.77;173.95;;;23.90;57.70;;;;;;6156248;28;88041;-63
2024/01/29 01:20:09;;;;;;;175.32;158.85;;;23.80;57.70;;;;;;6156784;28;89361;-63
2024/01/29 01:23:11;;;;;;;163.55;147.77;;;23.80;57.90;;;;;;6147204;28;89029;-63
2024/01/29 01:26:13;;;;;;;153.88;139.07;;;23.80;57.90;;;;;;6160479;28;89002;-63
2024/01/29 01:29:15;;;;;;;144.93;130.98;;;23.80;58.00;;;;;;6153107;28;89097;-63
2024/01/29 01:32:18;;;;;;;136.93;123.97;;;23.80;58.00;;;;;;6149112;28;88312;-63
2024/01/29 01:35:20;;;;;;;126.93;115.18;;;23.70;58.00;;;;;;6149654;28;89019;-62
2024/01/29 01:38:22;;;;;;;120.40;109.00;;;23.70;58.10;;;;;;6143020;28;89095;-62
2024/01/29 01:41:24;;;;;;;113.38;102.65;;;23.70;58.20;;;;;;6147488;28;90091;-63
2024/01/29 01:44:26;;;;;;;107.40;97.35;;;23.70;58.30;;;;;;6149709;28;89051;-63
2024/01/29 01:47:29;;;;;;;99.38;90.28;;;23.70;58.30;;;;;;6152897;28;89107;-63
2024/01/29 01:50:31;;;;;;;98.80;89.55;;;23.70;58.40;;;;;;6148344;28;89116;-62
2024/01/29 01:53:37;;;;;;;111.97;100.47;;;23.60;58.50;;;;;;6153208;28;89017;-63
2024/01/29 01:56:40;;;;;;;117.40;105.05;;;23.60;58.50;;;;;;6153303;28;89065;-63
2024/01/29 01:59:42;;;;;;;118.60;105.90;;;23.60;58.60;;;;;;6151277;28;88120;-62
2024/01/29 02:02:45;;;;;;;104.45;93.57;;;23.60;58.50;;;;;;6137159;28;88610;-63
2024/01/29 02:05:48;;;;;;;100.18;89.85;;;23.50;58.50;;;;;;6153421;28;89117;-62
2024/01/29 02:08:50;;;;;;;94.25;84.75;;;23.50;58.60;;;;;;6144706;28;89182;-63
2024/01/29 02:11:52;;;;;;;89.40;80.22;;;23.40;58.70;;;;;;6140270;28;90056;-63
2024/01/29 02:14:55;;;;;;;85.43;76.70;;;23.50;58.70;;;;;;6150541;28;89084;-63
2024/01/29 02:17:58;;;;;;;81.32;73.00;;;23.50;59.40;;;;;;6155881;28;88850;-64
2024/01/29 02:21:00;;;;;;;77.70;69.80;;;23.40;58.70;;;;;;6151531;28;89050;-63
2024/01/29 02:24:04;;;;;;;73.22;65.70;;;23.40;58.70;;;;;;6157873;28;89163;-63
2024/01/29 02:27:07;;;;;;;70.20;62.80;;;23.40;58.70;;;;;;6149733;28;89057;-63
2024/01/29 02:30:10;;;;;;;68.50;61.28;;;23.40;58.60;;;;;;6152349;28;89089;-63
2024/01/29 02:33:12;;;;;;;64.65;57.83;;;23.40;58.70;;;;;;6154799;28;88390;-63
2024/01/29 02:36:14;;;;;;;64.35;57.55;;;23.40;58.70;;;;;;6156975;28;89078;-63
2024/01/29 02:39:17;;;;;;;60.40;54.10;;;23.40;58.70;;;;;;6149233;28;89165;-63
2024/01/29 02:42:19;;;;;;;58.67;52.45;;;23.40;58.70;;;;;;6146377;28;89996;-63
2024/01/29 02:45:21;;;;;;;57.58;51.47;;;23.30;58.60;;;;;;6165300;28;89012;-64
2024/01/29 02:48:23;;;;;;;55.38;49.67;;;23.30;58.60;;;;;;6154262;28;89158;-64
2024/01/29 02:51:25;;;;;;;54.67;48.90;;;23.30;58.70;;;;;;6155908;28;89100;-63
2024/01/29 02:54:28;;;;;;;51.70;46.22;;;23.30;58.60;;;;;;6149046;28;89080;-63
2024/01/29 02:57:30;;;;;;;49.63;44.42;;;23.30;58.70;;;;;;6149417;28;89116;-63
2024/01/29 03:00:32;;;;;;;49.17;43.90;;;23.20;58.60;;;;;;6150205;28;89077;-63
2024/01/29 03:03:35;;;;;;;47.33;42.28;;;23.20;58.60;;;;;;6152768;28;87222;-64
2024/01/29 03:06:37;;;;;;;46.53;41.53;;;23.20;58.60;;;;;;6150610;28;88969;-63
2024/01/29 03:09:40;;;;;;;45.35;39.83;;;23.20;58.60;;;;;;6154848;28;89069;-63
2024/01/29 03:12:44;;;;;;;42.67;38.10;;;23.20;58.60;;;;;;6155211;28;89516;-64
2024/01/29 03:15:46;;;;;;;40.78;36.47;;;23.10;58.50;;;;;;6168002;28;89114;-63
2024/01/29 03:18:47;;;;;;;41.75;37.28;;;23.10;58.50;;;;;;6154645;28;90524;-63
2024/01/29 03:21:49;;;;;;;38.95;34.88;;;23.10;58.30;;;;;;6154673;28;89058;-63
2024/01/29 03:24:53;;;;;;;39.40;35.17;;;23.10;58.30;;;;;;6167303;28;88986;-63
2024/01/29 03:27:55;;;;;;;37.00;33.13;;;23.10;58.30;;;;;;6165397;28;89096;-63
2024/01/29 03:30:57;;;;;;;35.05;31.35;;;23.10;58.30;;;;;;6144476;28;89043;-63
2024/01/29 03:33:59;;;;;;;34.97;31.27;;;23.10;58.30;;;;;;6156918;28;88309;-64
2024/01/29 03:37:01;;;;;;;34.72;30.95;;;23.10;58.30;;;;;;6157304;28;89334;-63
2024/01/29 03:40:05;;;;;;;33.25;29.48;;;23.10;58.30;;;;;;6146581;28;88988;-63
2024/01/29 03:43:07;;;;;;;32.17;28.15;;;23.10;58.30;;;;;;6149705;28;90085;-64
2024/01/29 03:46:09;;;;;;;30.88;27.67;;;23.00;58.20;;;;;;6151003;28;89022;-63
2024/01/29 03:49:11;;;;;;;30.88;27.67;;;23.00;58.20;;;;;;6155650;28;88123;-63
2024/01/29 03:52:13;;;;;;;32.58;27.67;;;23.00;58.20;;;;;;6162656;28;89274;-63
2024/01/29 03:55:16;;;;;;;28.73;25.63;;;23.00;58.20;;;;;;6157076;28;89714;-63
2024/01/29 03:58:19;;;;;;;26.83;24.00;;;23.00;58.20;;;;;;6151907;28;89035;-64
2024/01/29 04:01:27;;;;;;;27.13;24.25;;;23.00;58.20;;;;;;6150320;28;89239;-63
2024/01/29 04:04:29;;;;;;;26.63;23.30;;;23.00;58.20;;;;;;6154661;28;88353;-64
2024/01/29 04:07:31;;;;;;;25.83;23.05;;;22.90;58.10;;;;;;6156948;28;89409;-64
2024/01/29 04:10:34;;;;;;;24.00;21.50;;;22.90;58.20;;;;;;6143608;28;89103;-63
2024/01/29 04:13:36;;;;;;;24.27;21.67;;;22.90;58.20;;;;;;6143810;28;89992;-63
2024/01/29 04:16:38;;;;;;;24.30;21.55;;;22.90;58.10;;;;;;6143833;28;89158;-63
2024/01/29 04:19:40;;;;;;;23.73;21.08;;;22.90;58.30;;;;;;6157797;28;88941;-63
2024/01/29 04:22:42;;;;;;;24.52;21.20;;;22.80;58.40;;;;;;6146381;28;90159;-63
2024/01/29 04:25:45;;;;;;;22.30;19.90;;;22.90;58.50;;;;;;6148590;28;89277;-64
2024/01/29 04:28:47;;;;;;;21.65;19.40;;;22.90;58.70;;;;;;6151645;28;89203;-63
2024/01/29 04:31:49;;;;;;;21.55;19.25;;;22.90;58.70;;;;;;6142485;28;89243;-63
2024/01/29 04:34:52;;;;;;;21.23;18.73;;;22.80;58.70;;;;;;6153881;28;87510;-63
2024/01/29 04:37:54;;;;;;;20.25;17.60;;;22.90;58.80;;;;;;6153570;28;89497;-63
2024/01/29 04:40:57;;;;;;;19.35;17.27;;;22.80;58.70;;;;;;6138390;28;89047;-63
2024/01/29 04:43:59;;;;;;;19.85;17.17;;;22.80;58.80;;;;;;6147556;28;90224;-63
2024/01/29 04:47:01;;;;;;;18.48;16.58;;;22.80;58.70;;;;;;6154917;28;89044;-63
2024/01/29 04:50:04;;;;;;;18.33;16.38;;;22.90;58.80;;;;;;6157762;28;89112;-63
2024/01/29 04:53:06;;;;;;;16.60;14.80;;;22.90;58.80;;;;;;6155648;28;89111;-63
2024/01/29 04:56:09;;;;;;;17.15;15.32;;;22.90;58.90;;;;;;6156293;28;89066;-63
2024/01/29 04:59:11;;;;;;;17.00;14.70;;;22.80;58.80;;;;;;6154255;28;89175;-63
2024/01/29 05:02:13;;;;;;;17.25;14.68;;;22.80;58.80;;;;;;6157784;28;89036;-63
2024/01/29 05:05:16;;;;;;;18.05;14.13;;;22.80;58.80;;;;;;6160491;28;88425;-63
2024/01/29 05:08:18;;;;;;;14.70;13.10;;;22.90;58.90;;;;;;6138554;28;89141;-63
2024/01/29 05:11:22;;;;;;;15.38;13.77;;;22.80;58.70;;;;;;6163639;28;89149;-63
2024/01/29 05:14:26;;;;;;;15.07;13.02;;;22.80;58.60;;;;;;6154849;28;89317;-63
2024/01/29 05:17:28;;;;;;;12.88;11.57;;;22.80;58.60;;;;;;6155608;28;87910;-63
2024/01/29 05:20:30;;;;;;;13.68;12.20;;;22.80;58.70;;;;;;6154562;28;89169;-63
2024/01/29 05:23:32;;;;;;;14.00;12.50;;;22.80;58.70;;;;;;6155947;28;87885;-63
2024/01/29 05:26:36;;;;;;;12.90;11.40;;;22.80;58.90;;;;;;6156119;28;89185;-63
2024/01/29 05:29:38;;;;;;;14.18;11.90;;;22.80;59.00;;;;;;6146087;28;89099;-63
2024/01/29 05:32:40;;;;;;;12.75;10.90;;;22.80;59.10;;;;;;6147430;28;89099;-63
2024/01/29 05:35:42;;;;;;;12.68;10.57;;;22.80;59.10;;;;;;6151102;28;88010;-63
2024/01/29 05:38:44;;;;;;;13.02;10.82;;;22.80;59.20;;;;;;6154008;28;90216;-63
2024/01/29 05:41:47;;;;;;;11.60;10.02;;;22.80;59.20;;;;;;6149665;28;89143;-63
2024/01/29 05:44:49;;;;;;;12.00;10.02;;;22.80;59.20;;;;;;6153390;28;90086;-63
2024/01/29 05:47:52;;;;;;;11.52;10.32;;;22.80;59.10;;;;;;6154458;28;89113;-63
2024/01/29 05:50:54;;;;;;;10.55;9.45;;;22.80;59.10;;;;;;6156301;28;89223;-63
2024/01/29 05:53:56;;;;;;;12.20;10.05;;;22.80;59.10;;;;;;6159281;28;89428;-63
2024/01/29 05:57:00;;;;;;;11.35;9.63;;;22.80;59.00;;;;;;6160958;28;89245;-63
2024/01/29 06:00:06;;;;;;;11.20;8.77;;;22.80;58.90;;;;;;6164030;28;89110;-63
2024/01/29 06:03:08;;;;;;;10.65;8.90;;;22.80;58.90;;;;;;6156870;28;89180;-62
2024/01/29 06:06:10;;;;;;;10.43;8.45;;;22.80;59.10;;;;;;6158224;28;88682;-63
2024/01/29 06:09:15;;;;;;;9.02;8.13;;;22.80;59.30;;;;;;6159782;28;89200;-63
2024/01/29 06:12:18;;;;;;;9.15;7.72;;;22.80;59.30;;;;;;6151902;28;89500;-62
2024/01/29 06:15:20;;;;;;;9.27;8.18;;;22.80;59.20;;;;;;6150548;28;90359;-62
2024/01/29 06:18:22;;;;;;;8.55;7.65;;;22.80;59.10;;;;;;6159920;28;89614;-63
2024/01/29 06:21:25;;;;;;;9.27;8.00;;;22.80;59.20;;;;;;6159454;28;89135;-63
2024/01/29 06:24:27;;;;;;;8.73;7.70;;;22.80;59.00;;;;;;6157686;28;89053;-62
2024/01/29 06:27:30;;;;;;;8.70;7.45;;;22.80;59.00;;;;;;6165467;28;89049;-63
2024/01/29 06:30:33;;;;;;;10.10;7.82;;;22.80;59.10;;;;;;6158882;28;89385;-62
2024/01/29 06:33:35;;;;;;;10.45;8.32;;;22.80;59.00;;;;;;6161768;28;89132;-63
2024/01/29 06:36:37;;;;;;;9.93;7.90;;;22.80;58.90;;;;;;6164470;28;88145;-62
2024/01/29 06:39:39;;;;;;;9.50;7.53;;;22.90;58.90;;;;;;6159596;28;89167;-63
2024/01/29 06:42:43;;;;;;;8.68;7.47;;;22.80;58.80;;;;;;6160434;28;87888;-63
2024/01/29 06:45:45;;;;;;;9.70;7.72;;;22.90;58.60;;;;;;6164116;28;90231;-63
2024/01/29 06:48:47;;;;;;;9.23;6.93;;;22.90;58.50;;;;;;6158571;28;89084;-62
2024/01/29 06:51:49;;;;;;;8.43;7.15;;;23.00;58.50;;;;;;6154215;28;87919;-63
2024/01/29 06:54:51;;;;;;;7.93;7.10;;;22.90;58.40;;;;;;6159329;28;89052;-63
2024/01/29 06:57:54;;;;;;;8.23;6.97;;;23.00;58.50;;;;;;6158420;28;89443;-63
2024/01/29 07:00:56;;;;;;;8.15;6.78;;;23.00;58.30;;;;;;6159671;28;89102;-63
2024/01/29 07:03:58;;;;;;;8.27;6.82;;;23.00;58.60;;;;;;6156795;28;89134;-63
2024/01/29 07:07:00;;;;;;;8.73;7.10;;;23.00;58.90;;;;;;6157972;28;88434;-63
2024/01/29 07:10:02;;;;;;;7.18;6.30;;;22.90;58.80;;;;;;6158782;28;89026;-63
2024/01/29 07:13:06;;;;;;;8.52;7.10;;;22.90;59.00;;;;;;6157691;28;88937;-62
2024/01/29 07:16:08;;;;;;;7.15;6.30;;;22.90;58.90;;;;;;6157835;28;90777;-61
2024/01/29 07:19:11;;;;;;;7.65;6.55;;;22.90;58.80;;;;;;6158351;28;89131;-61
2024/01/29 07:22:18;;;;;;;7.40;6.35;;;22.90;58.60;;;;;;6157571;28;88198;-61
2024/01/29 07:25:20;;;;;;;8.25;6.63;;;22.90;58.60;;;;;;6157366;28;89299;-61
2024/01/29 07:28:24;;;;;;;7.65;5.97;;;22.90;58.50;;;;;;6158673;28;88996;-61
2024/01/29 07:31:26;;;;;;;7.88;6.50;;;22.90;58.40;;;;;;6149282;28;89080;-61
2024/01/29 07:34:28;;;;;;;8.20;6.20;;;23.00;58.40;;;;;;6157341;28;89001;-62
2024/01/29 07:37:31;;;;;;;7.50;5.93;;;23.00;58.30;;;;;;6151132;28;87338;-62
2024/01/29 07:40:33;;;;;;;7.07;5.82;;;23.00;58.30;;;;;;6161388;28;89174;-61
2024/01/29 07:43:36;;;;;;;6.55;5.63;;;23.00;58.20;;;;;;6153558;28;88154;-62
2024/01/29 07:46:38;;;;;;;6.75;5.50;;;23.00;58.10;;;;;;6154793;28;88886;-61
2024/01/29 07:49:40;;;;;;;7.50;6.10;;;23.00;58.20;;;;;;6152901;28;89341;-61
2024/01/29 07:52:42;;;;;;;7.38;5.75;;;23.10;58.10;;;;;;6158105;28;89860;-62
2024/01/29 07:55:44;;;;;;;7.97;5.75;;;23.00;58.10;;;;;;6150794;28;89268;-61
2024/01/29 07:58:47;;;;;;;7.88;5.70;;;23.00;58.00;;;;;;6155214;28;89081;-61
2024/01/29 08:01:49;;;;;;;6.68;5.47;;;23.10;58.50;;;;;;6152989;28;89103;-61
2024/01/29 08:04:51;;;;;;;6.30;5.32;;;23.00;58.70;;;;;;6157254;28;89068;-61
2024/01/29 08:07:53;;;;;;;7.32;5.65;;;23.00;58.80;;;;;;6158712;28;88349;-61
2024/01/29 08:10:56;;;;;;;5.68;5.10;;;23.00;58.80;;;;;;6165988;28;89111;-61
2024/01/29 08:13:59;;;;;;;5.88;5.05;;;23.00;58.90;;;;;;6157037;28;89279;-61
2024/01/29 08:17:01;;;;;;;6.65;5.28;;;23.00;58.70;;;;;;6155830;28;90151;-61
2024/01/29 08:20:04;;;;;;;7.35;5.43;;;23.00;58.50;;;;;;6157605;28;89065;-61
2024/01/29 08:23:06;;;;;;;7.53;5.57;;;23.00;58.30;;;;;;6157056;28;89270;-62
2024/01/29 08:26:08;;;;;;;7.85;5.38;;;23.00;58.20;;;;;;6158304;28;90278;-61
2024/01/29 08:29:11;;;;;;;6.20;5.20;;;23.00;58.10;;;;;;6156951;28;89261;-61
2024/01/29 08:32:13;;;;;;;5.70;4.97;;;23.10;58.10;;;;;;6153369;28;89186;-61
2024/01/29 08:35:15;;;;;;;6.55;5.13;;;23.10;58.20;;;;;;6156465;28;89185;-61
2024/01/29 08:38:17;;;;;;;5.60;4.82;;;23.10;58.10;;;;;;6156041;28;87237;-61
2024/01/29 08:41:19;;;;;;;6.50;4.95;;;23.10;58.00;;;;;;6154288;28;89052;-61
2024/01/29 08:44:23;;;;;;;6.28;5.05;;;23.10;58.00;;;;;;6156610;28;89421;-61
2024/01/29 08:47:25;;;;;;;7.70;5.20;;;23.10;58.00;;;;;;6155086;28;90199;-61
2024/01/29 08:50:27;;;;;;;7.57;5.28;;;23.10;58.00;;;;;;6154476;28;89314;-62
2024/01/29 08:53:29;;;;;;;5.50;4.50;;;23.10;58.00;;;;;;6155683;28;89131;-62
2024/01/29 08:56:31;;;;;;;7.13;5.38;;;23.10;57.90;;;;;;6156577;28;89123;-62
2024/01/29 08:59:35;;;;;;;5.95;4.93;;;23.20;58.40;;;;;;6155318;28;89113;-62
2024/01/29 09:02:37;;;;;;;5.22;4.43;;;23.10;58.70;;;;;;6152713;28;88116;-62
2024/01/29 09:05:39;;;;;;;6.50;5.20;;;23.10;58.60;;;;;;6153809;28;89199;-62
2024/01/29 09:08:43;;;;;;;5.25;4.60;;;23.10;58.50;;;;;;6159228;28;88336;-61
2024/01/29 09:11:45;;;;;;;5.70;4.70;;;23.10;58.50;;;;;;6162401;28;89324;-61
2024/01/29 09:14:49;;;;;;;7.47;4.93;;;23.20;58.30;;;;;;6151234;28;89112;-62
2024/01/29 09:17:51;;;;;;;5.80;4.60;;;23.10;58.10;;;;;;6161743;28;90086;-62
2024/01/29 09:20:53;;;;;;;5.80;4.65;;;23.10;58.00;;;;;;6160761;28;89374;-62
2024/01/29 09:23:55;;;;;;;5.35;4.53;;;23.20;57.90;;;;;;6159264;28;89168;-62
2024/01/29 09:26:56;;;;;;;6.10;4.78;;;23.20;57.90;;;;;;6153137;28;89197;-62
2024/01/29 09:30:00;;;;;;;5.43;4.45;;;23.20;57.80;;;;;;6152853;28;89080;-61
2024/01/29 09:33:03;;;;;;;6.97;4.72;;;23.20;57.80;;;;;;6156553;28;90723;-62
2024/01/29 09:36:05;;;;;;;5.70;4.15;;;23.20;57.80;;;;;;6155774;28;89197;-62
2024/01/29 09:39:07;;;;;;;5.25;4.40;;;23.20;57.70;;;;;;6157206;28;88371;-62
2024/01/29 09:42:14;;;;;;;6.28;4.78;;;23.30;57.70;;;;;;6152482;28;89024;-62
2024/01/29 09:45:23;;;;;;;6.57;4.85;;;23.30;57.70;;;;;;6161405;28;89183;-62
2024/01/29 09:48:25;;;;;;;8.13;5.13;;;23.30;57.70;;;;;;6150569;28;89956;-61
2024/01/29 09:51:28;;;;;;;6.60;4.82;;;23.30;57.70;;;;;;6156246;28;87913;-62
2024/01/29 09:54:30;;;;;;;5.60;4.47;;;23.30;57.60;;;;;;6160172;28;89010;-62
2024/01/29 09:57:32;;;;;;;5.30;4.53;;;23.30;57.70;;;;;;6157689;28;89028;-62
2024/01/29 10:00:36;;;;;;;6.13;5.10;;;23.30;57.50;;;;;;6160824;28;89184;-62
2024/01/29 10:03:39;;;;;;;5.20;4.70;;;23.30;57.60;;;;;;6156262;28;87985;-62
2024/01/29 10:06:41;;;;;;;5.75;4.75;;;23.30;57.50;;;;;;6155652;28;87914;-62
2024/01/29 10:09:43;;;;;;;5.93;4.95;;;23.30;57.50;;;;;;6155633;28;87247;-62
2024/01/29 10:12:45;;;;;;;6.75;5.15;;;23.30;57.40;;;;;;6155277;28;89061;-62
2024/01/29 10:15:51;;;;;;;6.55;5.18;;;23.40;57.40;;;;;;6155529;28;88979;-63
2024/01/29 10:18:57;;;;;;;6.65;5.28;;;23.30;57.30;;;;;;6154772;28;90000;-62
2024/01/29 10:21:59;;;;;;;5.97;5.05;;;23.30;57.30;;;;;;6158384;28;89103;-63
2024/01/29 10:25:02;;;;;;;6.43;5.15;;;23.30;57.20;;;;;;6154831;28;88442;-62
2024/01/29 10:28:11;;;;;;;7.13;5.25;;;23.30;57.30;;;;;;6153090;28;88990;-62
2024/01/29 10:31:16;;;;;;;6.43;5.20;;;23.40;57.30;;;;;;6152559;28;89002;-62
2024/01/29 10:34:19;;;;;;;6.05;4.97;;;23.30;57.20;;;;;;6153922;28;89165;-63
2024/01/29 10:37:23;;;;;;;6.75;5.00;;;23.40;58.00;;;;;;6154777;28;89132;-62
2024/01/29 10:40:25;;;;;;;6.68;5.32;;;23.40;57.20;;;;;;6153209;28;88447;-62
2024/01/29 10:43:37;;;;;;;5.40;4.70;;;23.40;57.20;;;;;;6153430;28;89237;-62
2024/01/29 10:46:41;;;;;;;6.07;5.00;;;23.40;57.20;;;;;;6152414;28;89049;-62
2024/01/29 10:49:44;;;;;;;6.35;5.30;;;23.40;57.10;;;;;;6156574;28;90075;-62
2024/01/29 10:52:47;;;;;;;8.00;5.25;;;23.40;57.10;;;;;;6157911;28;88925;-62
2024/01/29 10:55:51;;;;;;;7.00;5.50;;;23.40;57.10;;;;;;6158331;28;89156;-62
2024/01/29 10:58:58;;;;;;;7.22;5.38;;;23.40;57.00;;;;;;6158816;28;88972;-61
2024/01/29 11:02:01;;;;;;;5.55;4.95;;;23.40;57.10;;;;;;6154081;28;89155;-62
2024/01/29 11:05:04;;;;;;;6.18;5.18;;;23.40;56.90;;;;;;6158424;28;89151;-62
2024/01/29 11:08:10;;;;;;;7.20;5.80;;;23.40;56.90;;;;;;6158673;28;87944;-62
2024/01/29 11:11:13;;;;;;;6.97;5.63;;;23.40;56.90;;;;;;6158870;28;88365;-61
2024/01/29 11:14:19;;;;;;;6.50;5.43;;;23.40;56.90;;;;;;6157433;28;89052;-62
2024/01/29 11:17:24;;;;;;;5.95;5.35;;;23.40;57.00;;;;;;6156500;28;89172;-62
2024/01/29 11:20:26;;;;;;;6.40;5.63;;;23.40;57.00;;;;;;6159179;28;90098;-62
2024/01/29 11:23:29;;;;;;;7.75;6.43;;;23.40;57.20;;;;;;6150059;28;89010;-62
2024/01/29 11:26:31;;;;;;;7.63;6.20;;;23.40;57.90;;;;;;6160948;28;88848;-62
2024/01/29 11:29:36;;;;;;;7.10;6.22;;;23.40;57.20;;;;;;6157193;28;89502;-62
2024/01/29 11:32:41;;;;;;;9.15;6.57;;;23.40;57.30;;;;;;6152664;28;89501;-62
2024/01/29 11:35:43;;;;;;;7.28;6.30;;;23.40;57.40;;;;;;6159339;28;89052;-62
2024/01/29 11:38:45;;;;;;;8.13;6.68;;;23.40;57.40;;;;;;6158005;28;89182;-62
2024/01/29 11:41:49;;;;;;;7.57;6.78;;;23.40;57.40;;;;;;6159206;28;88388;-62
2024/01/29 11:44:52;;;;;;;7.85;6.93;;;23.40;57.40;;;;;;6149731;28;89017;-62
2024/01/29 11:47:55;;;;;;;8.35;7.53;;;23.40;57.40;;;;;;6155524;28;89114;-62
2024/01/29 11:50:57;;;;;;;9.43;7.40;;;23.40;57.40;;;;;;6150786;28;90127;-62
2024/01/29 11:54:00;;;;;;;8.32;7.30;;;23.40;57.40;;;;;;6157595;28;89067;-62
2024/01/29 11:57:02;;;;;;;8.43;7.40;;;23.50;57.40;;;;;;6156487;28;89344;-62
2024/01/29 12:00:07;;;;;;;8.73;7.63;;;23.50;57.50;;;;;;6157593;28;90238;-63
2024/01/29 12:03:11;;;;;;;9.00;8.10;;;23.50;57.40;;;;;;6154629;28;88988;-63
2024/01/29 12:06:13;;;;;;;8.20;7.40;;;23.50;57.40;;;;;;6156632;28;89101;-62
2024/01/29 12:09:15;;;;;;;8.98;8.07;;;23.50;57.50;;;;;;6146541;28;89124;-63
2024/01/29 12:12:18;;;;;;;8.85;7.85;;;23.50;57.50;;;;;;6152018;28;88612;-62
2024/01/29 12:15:20;;;;;;;10.32;8.07;;;23.50;57.50;;;;;;6159022;28;89433;-62
2024/01/29 12:18:25;;;;;;;8.80;7.90;;;23.50;57.50;;;;;;6156874;28;89053;-62
2024/01/29 12:21:27;;;;;;;8.95;8.05;;;23.50;57.50;;;;;;6157037;28;88945;-61
2024/01/29 12:24:29;;;;;;;8.95;7.80;;;23.50;57.50;;;;;;6165014;28;89354;-62
2024/01/29 12:27:31;;;;;;;8.95;8.05;;;23.50;57.50;;;;;;6158452;28;89385;-63
2024/01/29 12:30:33;;;;;;;9.02;8.13;;;23.50;57.50;;;;;;6157479;28;88047;-62
2024/01/29 12:33:37;;;;;;;10.18;8.20;;;23.50;57.50;;;;;;6152530;28;89057;-62
2024/01/29 12:36:39;;;;;;;9.00;8.10;;;23.50;57.50;;;;;;6155047;28;89123;-62
2024/01/29 12:39:41;;;;;;;9.15;7.97;;;23.40;57.50;;;;;;6157169;28;89179;-62
2024/01/29 12:42:43;;;;;;;9.00;8.10;;;23.50;57.50;;;;;;6150765;28;88869;-63
2024/01/29 12:45:45;;;;;;;9.10;8.20;;;23.40;57.50;;;;;;6151954;28;89212;-62
2024/01/29 12:48:48;;;;;;;9.27;8.38;;;23.50;57.50;;;;;;6157019;28;89156;-62
2024/01/29 12:51:50;;;;;;;9.32;8.43;;;23.50;57.50;;;;;;6156475;28;90340;-63
2024/01/29 12:54:56;;;;;;;10.43;8.70;;;23.50;57.50;;;;;;6155889;28;89399;-62
2024/01/29 12:57:58;;;;;;;9.50;8.57;;;23.50;57.60;;;;;;6155448;28;89468;-61
2024/01/29 13:01:00;;;;;;;9.38;8.48;;;23.50;57.60;;;;;;6155957;28;89025;-62
2024/01/29 13:04:04;;;;;;;8.98;8.07;;;23.50;57.70;;;;;;6159450;28;88693;-62
2024/01/29 13:07:06;;;;;;;9.27;7.97;;;23.50;57.50;;;;;;6155972;28;89152;-62
2024/01/29 13:10:10;;;;;;;8.77;7.93;;;23.50;57.30;;;;;;6155513;28;89174;-63
2024/01/29 13:13:12;;;;;;;9.60;8.15;;;23.50;57.30;;;;;;6155471;28;88680;-62
2024/01/29 13:16:13;;;;;;;8.98;7.88;;;23.50;57.20;;;;;;6156635;28;89234;-62
2024/01/29 13:19:17;;;;;;;8.70;7.80;;;23.50;57.30;;;;;;6154066;28;89412;-62
2024/01/29 13:22:19;;;;;;;10.07;8.15;;;23.50;57.30;;;;;;6153726;28;89986;-62
2024/01/29 13:25:21;;;;;;;8.50;7.68;;;23.50;57.30;;;;;;6156246;28;89126;-62
2024/01/29 13:28:23;;;;;;;9.18;8.13;;;23.50;57.30;;;;;;6156636;28;88727;-62
2024/01/29 13:31:25;;;;;;;8.80;7.90;;;23.50;57.30;;;;;;6154888;28;91701;-62
2024/01/29 13:34:28;;;;;;;8.80;7.90;;;23.50;57.30;;;;;;6151202;28;89555;-62
2024/01/29 13:37:30;;;;;;;9.20;7.45;;;23.50;58.00;;;;;;6156711;28;89747;-62
2024/01/29 13:40:32;;;;;;;9.57;8.07;;;23.50;57.40;;;;;;6155871;28;89107;-62
2024/01/29 13:43:34;;;;;;;8.45;7.55;;;23.50;57.50;;;;;;6155975;28;88503;-62
2024/01/29 13:46:38;;;;;;;8.40;7.60;;;23.50;57.40;;;;;;6154389;28;89341;-62
2024/01/29 13:49:42;;;;;;;8.52;7.63;;;23.50;57.40;;;;;;6151222;28;89152;-62
2024/01/29 13:52:44;;;;;;;8.65;7.50;;;23.50;57.50;;;;;;6153156;28;90027;-62
2024/01/29 13:55:46;;;;;;;7.88;7.07;;;23.50;57.50;;;;;;6161893;28;88039;-63
2024/01/29 13:58:48;;;;;;;8.10;7.32;;;23.50;57.50;;;;;;6164035;28;89851;-62
2024/01/29 14:01:50;;;;;;;8.10;6.97;;;23.50;57.50;;;;;;6154113;28;89072;-62
2024/01/29 14:04:53;;;;;;;7.50;6.70;;;23.40;57.40;;;;;;6158255;28;89172;-62
2024/01/29 14:07:55;;;;;;;8.23;7.32;;;23.50;57.40;;;;;;6156436;28;89016;-62
2024/01/29 14:10:57;;;;;;;8.32;7.18;;;23.40;57.30;;;;;;6153978;28;89120;-62
2024/01/29 14:13:59;;;;;;;7.57;6.80;;;23.40;57.40;;;;;;6149384;28;88365;-62
2024/01/29 14:17:01;;;;;;;8.15;7.22;;;23.50;57.30;;;;;;6160339;28;89303;-62
2024/01/29 14:20:06;;;;;;;7.97;6.90;;;23.50;57.20;;;;;;6162969;28;89068;-62
2024/01/29 14:23:08;;;;;;;7.50;6.50;;;23.50;57.80;;;;;;6159382;28;89899;-62
2024/01/29 14:26:10;;;;;;;7.25;6.45;;;23.40;57.00;;;;;;6163064;28;89050;-62
2024/01/29 14:29:12;;;;;;;7.47;6.70;;;23.50;57.10;;;;;;6155813;28;89064;-62
2024/01/29 14:32:14;;;;;;;8.40;6.95;;;23.40;57.10;;;;;;6158540;28;89313;-64
2024/01/29 14:35:18;;;;;;;8.35;6.78;;;23.40;57.10;;;;;;6156684;28;89055;-62
2024/01/29 14:38:20;;;;;;;7.75;6.93;;;23.40;57.20;;;;;;6160826;28;88026;-62
2024/01/29 14:41:23;;;;;;;7.53;6.68;;;23.40;57.20;;;;;;6155909;28;89146;-62
2024/01/29 14:44:26;;;;;;;8.27;6.50;;;23.40;57.30;;;;;;6157002;28;88658;-62
2024/01/29 14:47:28;;;;;;;8.20;6.40;;;23.40;57.40;;;;;;6152434;28;89366;-62
2024/01/29 14:50:32;;;;;;;7.45;6.65;;;23.40;57.50;;;;;;6157936;28;89675;-62
2024/01/29 14:53:34;;;;;;;6.60;5.90;;;23.40;57.60;;;;;;6157313;28;90085;-62
2024/01/29 14:56:38;;;;;;;7.53;6.43;;;23.40;57.80;;;;;;6160024;28;89011;-62
2024/01/29 14:59:40;;;;;;;8.65;6.88;;;23.40;57.80;;;;;;6159461;28;89448;-62
2024/01/29 15:02:42;;;;;;;7.93;6.70;;;23.40;58.10;;;;;;6156910;28;89937;-63
2024/01/29 15:05:47;;;;;;;8.13;6.88;;;23.40;58.30;;;;;;6157858;28;89121;-62
2024/01/29 15:08:49;;;;;;;7.10;6.40;;;23.40;58.40;;;;;;6158351;28;89172;-63
2024/01/29 15:11:50;;;;;;;8.25;6.35;;;23.50;58.60;;;;;;6156824;28;89106;-63
2024/01/29 15:14:52;;;;;;;9.80;7.05;;;23.50;58.70;;;;;;6157477;28;88312;-63
2024/01/29 15:17:55;;;;;;;7.32;6.47;;;23.50;58.90;;;;;;6148351;28;88027;-63
2024/01/29 15:20:58;;;;;;;15.05;8.55;;;23.50;59.10;;;;;;6144482;28;89097;-63
2024/01/29 15:24:01;;;;;;;16.27;8.80;;;23.60;59.20;;;;;;6108838;28;90243;-62
2024/01/29 15:27:03;;;;;;;14.73;8.75;;;23.60;59.20;;;;;;6107447;28;89709;-63
2024/01/29 15:30:06;;;;;;;17.10;8.80;;;23.50;59.30;;;;;;6110757;28;89729;-63
2024/01/29 15:33:08;;;;;;;15.70;8.40;;;23.60;59.40;;;;;;6114708;28;89596;-62
2024/01/29 15:36:12;;;;;;;13.38;8.02;;;23.50;59.50;;;;;;6113739;28;89192;-62
2024/01/29 15:39:14;;;;;;;14.43;8.10;;;23.50;59.50;;;;;;6113767;28;89389;-62